La Habra Heights, California
Current Conditions -  °F | °C
As of 6:53 PM on Wednesday 26 Nov 2014 (Local Time) from KFUL Reporting Station
Clear Clear  
Wind Chill: 19°   Ceiling: Unl
Heat Index: 19°   Visibility: 10mi
Dew Point:   Wind: 0mph
Humidity: 47%   Direction: NA
Pressure: 30.12"   Gusts: NA
Location:  33.9421°N, 117.951°W
Report Text: KFUL 270253Z 00000KT 10SM CLR 19/07 A3012 RMK AO2 SLP199 T01890072 53006
Loading
Personal Weather Stations






























Interactive Weather Map New forecast layout! Learn more

10-Day Weather Forecast

Advertisements
Track Severe Weather on mobile